DAH6050 DAAG-DAAE
Flight info
| Callsign | DAH6050 |
|---|---|
| Flight time | 0h 21m |
| Altitude | 14000 |
| Route | BJA1B BJA |
| Aircraft | B738/M-SDE2E3FGHIRWXY/LB1 |
Departure
| Time | 2026-05-04 01:30 |
|---|---|
| Airport | Houari Boumediene Airport (DAAG) |
Arrival
| Time | 2026-05-04 01:51 |
|---|---|
| Airport | Soummam–Abane Ramdane Airport (DAAE) |
| Time | Latitude | Longitude | Altitude | Speed | Heading |
|---|---|---|---|---|---|
| 2026-05-04 01:30 | 36.63466 | 3.20444 | 10536 ft | 350 kts | 87° |
| 2026-05-04 01:30 | 36.63673 | 3.23546 | 10710 ft | 373 kts | 88° |
| 2026-05-04 01:30 | 36.63854 | 3.26863 | 10925 ft | 393 kts | 88° |
| 2026-05-04 01:30 | 36.64015 | 3.30323 | 11380 ft | 403 kts | 89° |
| 2026-05-04 01:31 | 36.64164 | 3.33831 | 12041 ft | 407 kts | 89° |
| 2026-05-04 01:31 | 36.64305 | 3.37358 | 12761 ft | 410 kts | 88° |
| 2026-05-04 01:31 | 36.64440 | 3.40858 | 13455 ft | 414 kts | 88° |
| 2026-05-04 01:31 | 36.64577 | 3.44459 | 13946 ft | 415 kts | 88° |
| 2026-05-04 01:32 | 36.64715 | 3.48087 | 14008 ft | 428 kts | 88° |
| 2026-05-04 01:32 | 36.64856 | 3.51836 | 14014 ft | 441 kts | 88° |
| 2026-05-04 01:32 | 36.65001 | 3.55685 | 14023 ft | 444 kts | 88° |
| 2026-05-04 01:32 | 36.65143 | 3.59532 | 14026 ft | 448 kts | 88° |
| 2026-05-04 01:33 | 36.65306 | 3.63345 | 14022 ft | 444 kts | 87° |
| 2026-05-04 01:33 | 36.65492 | 3.67220 | 14020 ft | 443 kts | 87° |
| 2026-05-04 01:33 | 36.65683 | 3.71048 | 14033 ft | 442 kts | 87° |
| 2026-05-04 01:33 | 36.65873 | 3.74874 | 14038 ft | 443 kts | 87° |
| 2026-05-04 01:34 | 36.66058 | 3.78652 | 14039 ft | 443 kts | 87° |
| 2026-05-04 01:34 | 36.66240 | 3.82472 | 14034 ft | 444 kts | 87° |
| 2026-05-04 01:34 | 36.66419 | 3.86312 | 14026 ft | 444 kts | 87° |
| 2026-05-04 01:34 | 36.66597 | 3.90144 | 14030 ft | 444 kts | 87° |
| 2026-05-04 01:35 | 36.66775 | 3.93988 | 14030 ft | 444 kts | 87° |
| 2026-05-04 01:35 | 36.66952 | 3.97828 | 14040 ft | 444 kts | 87° |
| 2026-05-04 01:35 | 36.67127 | 4.01670 | 14031 ft | 444 kts | 87° |
| 2026-05-04 01:35 | 36.67300 | 4.05518 | 14042 ft | 444 kts | 87° |
| 2026-05-04 01:36 | 36.67472 | 4.09306 | 14047 ft | 445 kts | 87° |
| 2026-05-04 01:36 | 36.67642 | 4.13157 | 14035 ft | 445 kts | 87° |
| 2026-05-04 01:36 | 36.67811 | 4.16991 | 14051 ft | 444 kts | 87° |
| 2026-05-04 01:36 | 36.67978 | 4.20821 | 14037 ft | 440 kts | 87° |
| 2026-05-04 01:37 | 36.68141 | 4.24609 | 14042 ft | 436 kts | 87° |
| 2026-05-04 01:37 | 36.68304 | 4.28388 | 14053 ft | 436 kts | 87° |
| 2026-05-04 01:37 | 36.68464 | 4.32149 | 14059 ft | 436 kts | 88° |
| 2026-05-04 01:37 | 36.68623 | 4.35883 | 13859 ft | 437 kts | 88° |
| 2026-05-04 01:38 | 36.68782 | 4.39648 | 13226 ft | 434 kts | 88° |
| 2026-05-04 01:38 | 36.68938 | 4.43383 | 12550 ft | 429 kts | 88° |
| 2026-05-04 01:38 | 36.69091 | 4.47071 | 11860 ft | 424 kts | 88° |
| 2026-05-04 01:38 | 36.69242 | 4.50716 | 11261 ft | 418 kts | 88° |
| 2026-05-04 01:39 | 36.69438 | 4.54257 | 11105 ft | 401 kts | 82° |
| 2026-05-04 01:39 | 36.70240 | 4.57499 | 10941 ft | 386 kts | 66° |
| 2026-05-04 01:39 | 36.71368 | 4.60472 | 10772 ft | 374 kts | 63° |
| 2026-05-04 01:39 | 36.72518 | 4.63316 | 10627 ft | 361 kts | 62° |
| 2026-05-04 01:40 | 36.73631 | 4.66041 | 10471 ft | 346 kts | 62° |
| 2026-05-04 01:40 | 36.74694 | 4.68631 | 10357 ft | 335 kts | 62° |
| 2026-05-04 01:40 | 36.75745 | 4.71167 | 10242 ft | 322 kts | 62° |
| 2026-05-04 01:40 | 36.76754 | 4.73612 | 10126 ft | 313 kts | 62° |
| 2026-05-04 01:41 | 36.77738 | 4.76007 | 9992 ft | 305 kts | 63° |
| 2026-05-04 01:41 | 36.78692 | 4.78326 | 9782 ft | 299 kts | 62° |
| 2026-05-04 01:41 | 36.79628 | 4.80606 | 9561 ft | 296 kts | 62° |
| 2026-05-04 01:41 | 36.80566 | 4.82892 | 9340 ft | 292 kts | 62° |
| 2026-05-04 01:42 | 36.81485 | 4.85129 | 9165 ft | 287 kts | 62° |
| 2026-05-04 01:42 | 36.82373 | 4.87295 | 8969 ft | 285 kts | 62° |
| 2026-05-04 01:42 | 36.83208 | 4.89586 | 8609 ft | 295 kts | 71° |
| 2026-05-04 01:42 | 36.83858 | 4.92013 | 8279 ft | 297 kts | 72° |
| 2026-05-04 01:43 | 36.84342 | 4.94503 | 7932 ft | 296 kts | 82° |
| 2026-05-04 01:43 | 36.84665 | 4.97048 | 7595 ft | 296 kts | 82° |
| 2026-05-04 01:43 | 36.84927 | 4.99586 | 7243 ft | 295 kts | 92° |
| 2026-05-04 01:43 | 36.84416 | 5.02000 | 6808 ft | 285 kts | 121° |
| 2026-05-04 01:44 | 36.83402 | 5.04093 | 6400 ft | 280 kts | 124° |
| 2026-05-04 01:44 | 36.82708 | 5.06322 | 5935 ft | 285 kts | 98° |
| 2026-05-04 01:44 | 36.82680 | 5.08818 | 5526 ft | 289 kts | 89° |
| 2026-05-04 01:44 | 36.82795 | 5.11326 | 5090 ft | 288 kts | 88° |
| 2026-05-04 01:45 | 36.82930 | 5.13809 | 4637 ft | 284 kts | 88° |
| 2026-05-04 01:45 | 36.83069 | 5.16240 | 4250 ft | 278 kts | 87° |
| 2026-05-04 01:45 | 36.83230 | 5.20937 | 3629 ft | 258 kts | 105° |
| 2026-05-04 01:46 | 36.82394 | 5.22767 | 3300 ft | 237 kts | 143° |
| 2026-05-04 01:46 | 36.81064 | 5.23812 | 3029 ft | 225 kts | 151° |
| 2026-05-04 01:46 | 36.79800 | 5.24902 | 2919 ft | 219 kts | 143° |
| 2026-05-04 01:46 | 36.78662 | 5.26199 | 2720 ft | 225 kts | 135° |
| 2026-05-04 01:47 | 36.77654 | 5.27702 | 2486 ft | 224 kts | 131° |
| 2026-05-04 01:47 | 36.76442 | 5.28744 | 2317 ft | 205 kts | 170° |
| 2026-05-04 01:47 | 36.75148 | 5.28459 | 2289 ft | 184 kts | 217° |
| 2026-05-04 01:47 | 36.74420 | 5.27205 | 2321 ft | 182 kts | 242° |
| 2026-05-04 01:48 | 36.73828 | 5.25793 | 2327 ft | 182 kts | 241° |
| 2026-05-04 01:48 | 36.73391 | 5.24323 | 2307 ft | 183 kts | 252° |
| 2026-05-04 01:48 | 36.73075 | 5.22772 | 2222 ft | 188 kts | 257° |
| 2026-05-04 01:48 | 36.72849 | 5.21159 | 1995 ft | 189 kts | 260° |
| 2026-05-04 01:49 | 36.72664 | 5.19584 | 1760 ft | 181 kts | 260° |
| 2026-05-04 01:49 | 36.72484 | 5.18036 | 1523 ft | 181 kts | 261° |
| 2026-05-04 01:49 | 36.72304 | 5.16491 | 1279 ft | 177 kts | 261° |
| 2026-05-04 01:49 | 36.72135 | 5.15042 | 1047 ft | 160 kts | 261° |
| 2026-05-04 01:50 | 36.71986 | 5.13763 | 840 ft | 143 kts | 262° |
| 2026-05-04 01:50 | 36.71845 | 5.12547 | 687 ft | 138 kts | 261° |
| 2026-05-04 01:50 | 36.71704 | 5.11344 | 458 ft | 142 kts | 262° |
| 2026-05-04 01:50 | 36.71566 | 5.10155 | 314 ft | 142 kts | 261° |
| 2026-05-04 01:51 | 36.71422 | 5.08930 | 147 ft | 143 kts | 261° |
| 2026-05-04 01:51 | 36.71277 | 5.07719 | 14 ft | 136 kts | 261° |
| 2026-05-04 01:51 | 36.71163 | 5.06688 | 7 ft | 103 kts | 262° |
| 2026-05-04 01:51 | 36.71084 | 5.06017 | 10 ft | 44 kts | 262° |
| 2026-05-04 01:52 | 36.71084 | 5.05747 | 9 ft | 19 kts | 305° |
| 2026-05-04 01:52 | 36.71080 | 5.05673 | 8 ft | 4 kts | 212° |
| 2026-05-04 01:52 | 36.71055 | 5.05682 | 9 ft | 4 kts | 127° |
| 2026-05-04 01:52 | 36.71049 | 5.05717 | 8 ft | 4 kts | 85° |
| 2026-05-04 01:53 | 36.71060 | 5.05789 | 8 ft | 14 kts | 80° |
| 2026-05-04 01:53 | 36.71077 | 5.05913 | 10 ft | 14 kts | 82° |
| 2026-05-04 01:53 | 36.71088 | 5.06035 | 10 ft | 14 kts | 82° |
| 2026-05-04 01:53 | 36.71101 | 5.06151 | 9 ft | 13 kts | 82° |
| 2026-05-04 01:54 | 36.71113 | 5.06262 | 9 ft | 13 kts | 82° |
| 2026-05-04 01:54 | 36.71126 | 5.06371 | 9 ft | 13 kts | 82° |
| 2026-05-04 01:54 | 36.71143 | 5.06514 | 9 ft | 21 kts | 82° |
| 2026-05-04 01:54 | 36.71165 | 5.06705 | 8 ft | 23 kts | 82° |
| 2026-05-04 01:55 | 36.71187 | 5.06889 | 6 ft | 18 kts | 77° |
| 2026-05-04 01:55 | 36.71248 | 5.06941 | 6 ft | 10 kts | 360° |
| 2026-05-04 01:55 | 36.71316 | 5.06931 | 8 ft | 10 kts | 352° |
| 2026-05-04 01:55 | 36.71367 | 5.06973 | 8 ft | 9 kts | 69° |
| 2026-05-04 01:56 | 36.71372 | 5.07051 | 8 ft | 9 kts | 80° |
| 2026-05-04 01:56 | 36.71382 | 5.07125 | 8 ft | 9 kts | 81° |
| 2026-05-04 01:56 | 36.71391 | 5.07199 | 8 ft | 8 kts | 86° |
| 2026-05-04 01:56 | 36.71398 | 5.07258 | 8 ft | 6 kts | 64° |
| 2026-05-04 01:57 | 36.71412 | 5.07272 | 8 ft | 2 kts | 26° |
| 2026-05-04 01:57 | 36.71428 | 5.07272 | 8 ft | 2 kts | 352° |
| 2026-05-04 01:57 | 36.71441 | 5.07265 | 8 ft | 2 kts | 317° |
| 2026-05-04 01:57 | 36.71438 | 5.07251 | 9 ft | 2 kts | 232° |
| 2026-05-04 01:58 | 36.71428 | 5.07243 | 8 ft | 1 kts | 216° |
| 2026-05-04 01:58 | 36.71427 | 5.07243 | 8 ft | 0 kts | 216° |